Time;durP1;ratioP1;P1;durP2;ratioP2;P2;SDS_P1;SDS_P2;PMS_P1;PMS_P2;Temp;Humidity;BMP_temperature;BMP_pressure;BME280_temperature;BME280_humidity;BME280_pressure;Samples;Min_cycle;Max_cycle;Signal;HPM_P1;HPM_P2
2022/01/13 00:00:37;;;;;;;712.72;54.90;;;4.70;99.90;;;;;;5092024;28;20036;-73
2022/01/13 00:03:03;;;;;;;634.33;49.03;;;4.70;99.90;;;;;;5086521;28;20040;-70
2022/01/13 00:05:30;;;;;;;628.60;47.08;;;4.70;99.90;;;;;;5110775;28;20036;-71
2022/01/13 00:07:57;;;;;;;743.38;56.97;;;4.70;99.90;;;;;;5082517;28;20094;-70
2022/01/13 00:10:24;;;;;;;698.72;54.72;;;4.70;99.90;;;;;;5083964;28;20096;-71
2022/01/13 00:12:58;;;;;;;621.00;51.85;;;4.70;99.90;;;;;;5095791;28;20044;-70
2022/01/13 00:15:37;;;;;;;714.03;53.72;;;4.70;99.90;;;;;;5084428;28;20493;-72
2022/01/13 00:18:10;;;;;;;771.78;56.20;;;4.70;99.90;;;;;;5086335;28;20084;-72
2022/01/13 00:23:43;;;;;;;516.20;43.70;;;4.70;99.90;;;;;;5056273;28;20040;-69
2022/01/13 00:26:23;;;;;;;663.97;53.00;;;4.70;99.90;;;;;;5081885;28;20101;-70
2022/01/13 00:28:51;;;;;;;788.30;59.72;;;4.70;99.90;;;;;;5106663;28;20047;-70
2022/01/13 00:31:24;;;;;;;754.15;53.42;;;4.70;99.90;;;;;;5074212;28;20454;-71
2022/01/13 00:33:54;;;;;;;757.67;55.45;;;4.70;99.90;;;;;;5091382;28;20089;-73
2022/01/13 00:36:21;;;;;;;932.47;62.63;;;4.70;99.90;;;;;;5089616;28;20974;-70
2022/01/13 00:38:46;;;;;;;953.92;67.68;;;4.70;99.90;;;;;;5086152;28;20052;-70
2022/01/13 00:41:12;;;;;;;805.72;57.67;;;4.70;99.90;;;;;;5095859;28;20037;-72
2022/01/13 00:43:40;;;;;;;748.40;57.45;;;4.80;99.90;;;;;;5101908;28;20212;-74
2022/01/13 00:46:06;;;;;;;756.13;56.88;;;4.70;99.90;;;;;;5085651;28;20394;-73
2022/01/13 00:48:32;;;;;;;769.58;55.50;;;4.80;99.90;;;;;;5092514;28;20105;-72
2022/01/13 00:50:58;;;;;;;866.53;63.20;;;4.70;99.90;;;;;;5098386;28;20387;-70
2022/01/13 00:53:23;;;;;;;859.38;59.13;;;4.80;99.90;;;;;;5082771;28;20623;-70
2022/01/13 00:55:58;;;;;;;877.78;58.78;;;4.80;99.90;;;;;;5090326;28;20494;-71
2022/01/13 00:58:25;;;;;;;913.10;62.97;;;4.80;99.90;;;;;;5092711;28;20494;-70
2022/01/13 01:00:51;;;;;;;885.08;63.17;;;4.80;99.90;;;;;;5098788;28;20047;-72
2022/01/13 01:03:16;;;;;;;764.75;56.67;;;4.80;99.90;;;;;;5087930;28;20032;-70
2022/01/13 01:05:42;;;;;;;919.67;65.25;;;4.80;99.90;;;;;;5093271;28;20037;-71
2022/01/13 01:08:12;;;;;;;874.78;64.05;;;4.80;99.90;;;;;;5097757;28;20379;-71
2022/01/13 01:10:39;;;;;;;881.80;63.40;;;4.80;99.90;;;;;;5102962;28;20028;-71
2022/01/13 01:13:12;;;;;;;822.20;63.15;;;4.80;99.90;;;;;;5094891;28;20043;-72
2022/01/13 01:15:41;;;;;;;888.78;58.63;;;4.90;99.90;;;;;;5090880;28;20063;-74
2022/01/13 01:18:19;;;;;;;958.15;59.17;;;4.80;99.90;;;;;;5089980;28;20028;-71
2022/01/13 01:20:52;;;;;;;858.92;58.63;;;4.90;99.90;;;;;;5096360;28;20132;-72
2022/01/13 01:23:22;;;;;;;932.08;60.47;;;4.90;99.90;;;;;;5075800;28;20058;-71
2022/01/13 01:26:37;;;;;;;863.95;62.63;;;4.90;99.90;;;;;;5090305;28;20123;-74
2022/01/13 01:28:46;;;;;;;910.25;61.13;;;4.90;99.90;;;;;;5079375;28;20040;-71
2022/01/13 01:31:13;;;;;;;854.65;63.65;;;4.90;99.90;;;;;;5090714;28;20434;-73
2022/01/13 01:33:43;;;;;;;808.58;51.75;;;4.80;99.90;;;;;;5100914;28;20122;-70
2022/01/13 01:36:12;;;;;;;879.65;58.78;;;4.90;99.90;;;;;;5089540;28;20044;-72
2022/01/13 01:38:39;;;;;;;854.63;61.85;;;4.80;99.90;;;;;;5089150;28;20028;-72
2022/01/13 01:41:04;;;;;;;773.95;59.10;;;4.90;99.90;;;;;;5086511;28;20044;-71
2022/01/13 01:43:30;;;;;;;799.38;54.67;;;4.90;99.90;;;;;;5087797;28;20395;-73
2022/01/13 01:45:55;;;;;;;810.95;57.92;;;4.90;99.90;;;;;;5097334;28;20040;-73
2022/01/13 01:48:21;;;;;;;795.33;58.60;;;4.80;99.90;;;;;;5104653;28;20047;-71
2022/01/13 01:50:58;;;;;;;765.15;55.83;;;4.90;99.90;;;;;;5096965;28;20036;-73
2022/01/13 01:53:24;;;;;;;846.58;58.38;;;4.90;99.90;;;;;;5087255;28;20044;-72
2022/01/13 01:55:53;;;;;;;908.65;61.58;;;4.90;99.90;;;;;;5091085;28;20039;-71
2022/01/13 01:58:19;;;;;;;805.45;55.60;;;4.90;99.90;;;;;;5097274;28;20025;-72
2022/01/13 02:00:44;;;;;;;799.88;55.97;;;4.90;99.90;;;;;;5097793;28;20236;-72
2022/01/13 02:03:11;;;;;;;746.55;52.33;;;4.90;99.90;;;;;;5091834;28;20032;-70
2022/01/13 02:05:36;;;;;;;905.72;59.20;;;4.90;99.90;;;;;;5072446;28;20028;-70
2022/01/13 02:08:02;;;;;;;796.00;57.17;;;4.90;99.90;;;;;;5090191;28;20487;-73
2022/01/13 02:10:28;;;;;;;774.00;57.72;;;4.90;99.90;;;;;;5066756;28;20043;-68
2022/01/13 02:13:02;;;;;;;842.97;60.15;;;4.90;99.90;;;;;;5096488;28;20059;-73
2022/01/13 02:15:31;;;;;;;753.10;53.85;;;4.90;99.90;;;;;;5096922;28;20047;-71
2022/01/13 02:17:59;;;;;;;846.78;58.55;;;4.90;99.90;;;;;;5088678;28;20043;-70
2022/01/13 02:20:39;;;;;;;863.92;57.17;;;4.80;99.90;;;;;;5090956;28;20094;-70
2022/01/13 02:23:04;;;;;;;776.72;59.80;;;4.80;99.90;;;;;;5069153;28;20044;-68
2022/01/13 02:25:30;;;;;;;661.15;51.70;;;4.90;99.90;;;;;;5097097;28;20047;-70
2022/01/13 02:27:55;;;;;;;624.08;51.63;;;4.90;99.90;;;;;;5096476;28;20600;-72
2022/01/13 02:30:21;;;;;;;492.55;44.25;;;4.90;99.90;;;;;;5093294;28;20044;-71
2022/01/13 02:32:46;;;;;;;666.40;52.72;;;4.80;99.90;;;;;;5098271;28;20043;-73
2022/01/13 02:35:12;;;;;;;645.40;51.75;;;4.90;99.90;;;;;;5080546;28;20474;-70
2022/01/13 02:37:37;;;;;;;826.97;59.05;;;4.90;99.90;;;;;;5089251;28;20038;-71
2022/01/13 02:40:05;;;;;;;833.63;59.55;;;4.90;99.90;;;;;;5088126;28;20118;-70
2022/01/13 02:42:32;;;;;;;843.65;57.25;;;4.80;99.90;;;;;;5089881;28;20039;-70
2022/01/13 02:45:03;;;;;;;839.22;63.83;;;4.80;99.90;;;;;;5088762;28;20441;-71
2022/01/13 02:47:58;;;;;;;859.78;61.40;;;4.80;99.90;;;;;;5086297;28;20116;-72
2022/01/13 02:50:21;;;;;;;;;;;4.80;99.90;;;;;;5088347;28;20040;-73
2022/01/13 02:52:46;;;;;;;823.65;57.63;;;4.80;99.90;;;;;;5089114;28;19923;-70
2022/01/13 02:55:12;;;;;;;767.75;58.58;;;4.80;99.90;;;;;;5103811;28;20622;-71
2022/01/13 02:57:39;;;;;;;844.15;61.00;;;4.80;99.90;;;;;;5088673;28;20032;-69
2022/01/13 03:00:06;;;;;;;855.45;58.20;;;4.80;99.90;;;;;;5078573;28;20044;-70
2022/01/13 03:02:32;;;;;;;804.15;57.30;;;4.80;99.90;;;;;;5082319;28;20165;-71
2022/01/13 03:04:59;;;;;;;877.00;57.60;;;4.80;99.90;;;;;;5071784;28;20118;-70
2022/01/13 03:07:26;;;;;;;823.92;55.85;;;4.80;99.90;;;;;;5087793;28;20062;-71
2022/01/13 03:09:51;;;;;;;789.08;58.38;;;4.80;99.90;;;;;;5083815;28;20416;-71
2022/01/13 03:12:18;;;;;;;807.55;56.40;;;4.70;99.90;;;;;;5086010;28;20496;-71
2022/01/13 03:14:44;;;;;;;767.72;54.70;;;4.70;99.90;;;;;;5082960;28;20039;-71
2022/01/13 03:17:09;;;;;;;763.17;56.08;;;4.70;99.90;;;;;;5092400;28;20039;-72
2022/01/13 03:19:35;;;;;;;794.13;54.17;;;4.70;99.90;;;;;;5092184;28;20028;-71
2022/01/13 03:22:00;;;;;;;812.55;59.50;;;4.70;99.90;;;;;;5092051;28;20509;-72
2022/01/13 03:24:27;;;;;;;741.10;58.25;;;4.70;99.90;;;;;;5092995;28;20142;-71
2022/01/13 03:26:54;;;;;;;840.47;58.38;;;4.70;99.90;;;;;;5092837;28;20046;-71
2022/01/13 03:29:22;;;;;;;670.95;55.05;;;4.70;99.90;;;;;;5092700;28;20043;-73
2022/01/13 03:31:47;;;;;;;665.92;50.30;;;4.70;99.90;;;;;;5074026;28;20429;-72
2022/01/13 03:34:14;;;;;;;783.58;56.58;;;4.70;99.90;;;;;;5092333;28;20048;-72
2022/01/13 03:36:41;;;;;;;828.00;55.75;;;4.70;99.90;;;;;;5092676;28;20044;-70
2022/01/13 03:39:08;;;;;;;799.40;57.22;;;4.60;99.90;;;;;;5092548;28;20032;-71
2022/01/13 03:41:36;;;;;;;814.97;59.22;;;4.70;99.90;;;;;;5074903;28;20021;-70
2022/01/13 03:44:06;;;;;;;774.30;57.03;;;4.70;99.90;;;;;;5089151;28;20040;-70
2022/01/13 03:46:36;;;;;;;731.20;52.15;;;4.70;99.90;;;;;;5089717;28;20511;-70
2022/01/13 03:49:07;;;;;;;819.80;54.95;;;4.70;99.90;;;;;;5092280;28;20040;-70
2022/01/13 03:52:05;;;;;;;858.53;54.95;;;4.70;99.90;;;;;;5079939;28;20036;-71
2022/01/13 03:54:35;;;;;;;803.42;56.55;;;4.60;99.90;;;;;;5092477;28;20110;-71
2022/01/13 03:57:38;;;;;;;852.13;56.97;;;4.60;99.90;;;;;;5106657;27;20039;-72
2022/01/13 04:00:24;;;;;;;;;;;4.60;99.90;;;;;;5099239;28;20039;-73
2022/01/13 04:02:49;;;;;;;719.10;49.40;;;4.60;99.90;;;;;;5045015;28;19915;-71
2022/01/13 04:05:16;;;;;;;775.35;53.42;;;4.60;99.90;;;;;;5101717;28;20036;-70
2022/01/13 04:07:41;;;;;;;672.75;50.20;;;4.60;99.90;;;;;;5089809;28;20036;-70
2022/01/13 04:10:29;;;;;;;665.78;52.75;;;4.60;99.90;;;;;;5089768;28;20364;-72
2022/01/13 04:12:56;;;;;;;708.22;54.53;;;4.60;99.90;;;;;;5096888;28;20471;-72
2022/01/13 04:15:23;;;;;;;742.28;50.95;;;4.60;99.90;;;;;;5100359;28;20040;-70
2022/01/13 04:17:49;;;;;;;687.75;52.88;;;4.60;99.90;;;;;;5091512;28;20076;-74
2022/01/13 04:20:15;;;;;;;715.22;52.30;;;4.60;99.90;;;;;;5091178;28;20509;-70
2022/01/13 04:22:40;;;;;;;761.13;55.28;;;4.70;99.90;;;;;;5074356;28;20036;-72
2022/01/13 04:25:06;;;;;;;756.58;54.42;;;4.70;99.90;;;;;;5089407;28;20474;-70
2022/01/13 04:27:37;;;;;;;672.47;53.17;;;4.60;99.90;;;;;;5096849;28;20414;-71
2022/01/13 04:32:40;;;;;;;709.35;52.50;;;4.70;99.90;;;;;;5094290;28;20121;-71
2022/01/13 04:35:06;;;;;;;678.97;55.22;;;4.60;99.90;;;;;;5090596;28;20084;-72
2022/01/13 04:37:32;;;;;;;719.33;54.50;;;4.60;99.90;;;;;;5091128;28;20123;-72
2022/01/13 04:39:57;;;;;;;654.47;51.80;;;4.60;99.90;;;;;;5091323;28;20123;-72
2022/01/13 04:42:23;;;;;;;694.70;54.80;;;4.60;99.90;;;;;;5099968;28;20037;-71
2022/01/13 04:44:49;;;;;;;723.63;53.63;;;4.60;99.90;;;;;;5091393;28;20387;-70
2022/01/13 04:47:14;;;;;;;698.15;50.80;;;4.60;99.90;;;;;;5088801;28;20131;-70
2022/01/13 04:49:40;;;;;;;666.80;50.72;;;4.60;99.90;;;;;;5089884;28;20043;-74
2022/01/13 04:52:05;;;;;;;650.85;50.22;;;4.60;99.90;;;;;;5105899;28;20044;-72
2022/01/13 04:54:32;;;;;;;784.92;57.90;;;4.60;99.90;;;;;;5104559;28;20036;-71
2022/01/13 04:57:15;;;;;;;742.90;56.17;;;4.50;99.90;;;;;;5090699;28;20534;-71
2022/01/13 04:59:41;;;;;;;643.38;52.22;;;4.50;99.90;;;;;;5093029;28;20035;-71
2022/01/13 05:02:07;;;;;;;577.03;49.38;;;4.60;99.90;;;;;;5107887;28;20419;-73
2022/01/13 05:04:32;;;;;;;611.15;46.35;;;4.50;99.90;;;;;;5075120;28;20044;-69
2022/01/13 05:06:58;;;;;;;586.83;52.45;;;4.50;99.90;;;;;;5090722;28;20040;-71
2022/01/13 05:09:23;;;;;;;580.35;49.50;;;4.50;99.90;;;;;;5097585;28;20040;-72
2022/01/13 05:11:49;;;;;;;551.90;46.15;;;4.50;99.90;;;;;;5104688;28;20047;-71
2022/01/13 05:14:15;;;;;;;655.60;54.10;;;4.50;99.90;;;;;;5099875;28;20040;-71
2022/01/13 05:16:57;;;;;;;613.70;55.17;;;4.50;99.90;;;;;;5091891;28;20102;-71
2022/01/13 05:19:33;;;;;;;611.90;49.75;;;4.50;99.90;;;;;;5111101;27;20115;-73
2022/01/13 05:24:26;;;;;;;696.00;57.10;;;4.50;99.90;;;;;;5087753;28;20468;-73
2022/01/13 05:26:52;;;;;;;687.53;53.70;;;4.50;99.90;;;;;;5083747;28;20040;-70
2022/01/13 05:29:20;;;;;;;616.28;48.08;;;4.50;99.90;;;;;;5085909;28;20563;-69
2022/01/13 05:31:47;;;;;;;712.72;49.78;;;4.50;99.90;;;;;;5086779;28;20035;-69
2022/01/13 05:34:13;;;;;;;761.00;52.85;;;4.50;99.90;;;;;;5100226;28;20045;-69
2022/01/13 05:36:38;;;;;;;668.80;51.97;;;4.50;99.90;;;;;;5088784;28;20402;-72
2022/01/13 05:39:04;;;;;;;699.97;53.35;;;4.50;99.90;;;;;;5087186;28;20044;-72
2022/01/13 05:41:31;;;;;;;665.47;50.22;;;4.50;99.90;;;;;;5108753;28;20136;-71
2022/01/13 05:43:57;;;;;;;747.55;54.75;;;4.50;99.90;;;;;;5091730;28;20501;-72
2022/01/13 05:46:22;;;;;;;737.08;56.90;;;4.50;99.90;;;;;;5088482;28;20040;-71
2022/01/13 05:48:48;;;;;;;709.45;52.05;;;4.50;99.90;;;;;;5101286;28;20036;-70
2022/01/13 05:51:14;;;;;;;719.45;56.20;;;4.50;99.90;;;;;;5084864;28;20421;-73
2022/01/13 05:53:40;;;;;;;637.88;54.63;;;4.50;99.90;;;;;;5086425;28;20046;-71
2022/01/13 05:56:05;;;;;;;667.95;54.08;;;4.50;99.90;;;;;;5089083;28;20398;-69
2022/01/13 05:58:31;;;;;;;653.65;54.53;;;4.50;99.90;;;;;;5088610;28;20036;-71
2022/01/13 06:00:56;;;;;;;756.33;58.50;;;4.50;99.90;;;;;;5079562;28;20046;-71
2022/01/13 06:03:22;;;;;;;685.22;54.65;;;4.50;99.90;;;;;;5072668;28;20483;-72
2022/01/13 06:05:47;;;;;;;691.72;52.78;;;4.40;99.90;;;;;;5091200;28;20043;-71
2022/01/13 06:08:13;;;;;;;700.58;56.75;;;4.40;99.90;;;;;;5081548;28;20135;-71
2022/01/13 06:10:43;;;;;;;689.15;55.58;;;4.40;99.90;;;;;;5072197;28;20091;-73
2022/01/13 06:13:08;;;;;;;673.03;53.55;;;4.40;99.90;;;;;;5087779;28;20046;-71
2022/01/13 06:15:37;;;;;;;687.92;49.25;;;4.40;99.90;;;;;;5086687;28;20119;-70
2022/01/13 06:18:04;;;;;;;800.70;61.72;;;4.40;99.90;;;;;;5087637;28;20047;-73
2022/01/13 06:20:30;;;;;;;776.55;59.25;;;4.40;99.90;;;;;;5088525;28;20123;-68
2022/01/13 06:22:57;;;;;;;747.78;57.50;;;4.40;99.90;;;;;;5082744;28;20685;-73
2022/01/13 06:25:23;;;;;;;716.08;56.47;;;4.40;99.90;;;;;;5087999;28;20138;-72
2022/01/13 06:27:49;;;;;;;667.85;47.38;;;4.40;99.90;;;;;;5099161;28;20499;-73
2022/01/13 06:30:14;;;;;;;592.38;51.15;;;4.40;99.90;;;;;;5089171;28;20490;-69
2022/01/13 06:32:41;;;;;;;641.47;50.40;;;4.40;99.90;;;;;;5088605;28;20548;-69
2022/01/13 06:35:08;;;;;;;733.38;54.10;;;4.40;99.90;;;;;;5072323;28;20032;-72
2022/01/13 06:37:33;;;;;;;732.95;59.92;;;4.40;99.90;;;;;;5088439;28;20040;-73
2022/01/13 06:40:01;;;;;;;688.72;50.33;;;4.40;99.90;;;;;;5088837;28;20471;-71
2022/01/13 06:42:27;;;;;;;698.33;54.40;;;4.40;99.90;;;;;;5088556;28;20111;-71
2022/01/13 06:44:52;;;;;;;756.97;58.90;;;4.40;99.90;;;;;;5087750;28;20123;-71
2022/01/13 06:47:18;;;;;;;772.88;62.75;;;4.40;99.90;;;;;;5071105;28;20063;-70
2022/01/13 06:49:44;;;;;;;676.15;53.95;;;4.40;99.90;;;;;;5090460;28;20045;-71
2022/01/13 06:52:10;;;;;;;793.92;62.45;;;4.40;99.90;;;;;;5069892;28;20044;-72
2022/01/13 06:54:36;;;;;;;816.15;60.95;;;4.40;99.90;;;;;;5090052;28;20502;-73
2022/01/13 06:57:01;;;;;;;743.00;61.83;;;4.40;99.90;;;;;;5106513;28;20039;-73
2022/01/13 06:59:27;;;;;;;780.25;65.43;;;4.40;99.90;;;;;;5085791;28;20038;-71
2022/01/13 07:01:53;;;;;;;729.38;63.03;;;4.40;99.90;;;;;;5090139;28;20058;-72
2022/01/13 07:04:18;;;;;;;786.75;62.85;;;4.40;99.90;;;;;;5101911;28;20039;-72
2022/01/13 07:06:45;;;;;;;777.72;64.55;;;4.40;99.90;;;;;;5077817;28;20508;-70
2022/01/13 07:09:17;;;;;;;753.45;61.15;;;4.40;99.90;;;;;;5094074;28;20040;-72
2022/01/13 07:11:43;;;;;;;784.40;63.10;;;4.40;99.90;;;;;;5076411;28;20302;-73
2022/01/13 07:14:09;;;;;;;768.45;65.05;;;4.40;99.90;;;;;;5077787;28;20298;-71
2022/01/13 07:16:35;;;;;;;766.47;63.45;;;4.40;99.90;;;;;;5082151;28;20032;-72
2022/01/13 07:19:02;;;;;;;801.83;60.95;;;4.40;99.90;;;;;;5097205;28;20040;-71
2022/01/13 07:21:29;;;;;;;835.20;64.13;;;4.40;99.90;;;;;;5079487;28;20036;-72
2022/01/13 07:23:55;;;;;;;745.67;59.30;;;4.40;99.90;;;;;;5077340;28;20044;-69
2022/01/13 07:26:21;;;;;;;787.65;60.97;;;4.40;99.90;;;;;;5073791;28;20046;-69
2022/01/13 07:28:47;;;;;;;772.70;64.00;;;4.40;99.90;;;;;;5078895;28;20044;-71
2022/01/13 07:31:14;;;;;;;768.38;61.03;;;4.40;99.90;;;;;;5083281;28;20126;-71
2022/01/13 07:33:41;;;;;;;752.05;60.22;;;4.50;99.90;;;;;;5088663;28;20055;-69
2022/01/13 07:36:07;;;;;;;693.60;58.63;;;4.50;99.90;;;;;;5090562;28;20056;-70
2022/01/13 07:38:32;;;;;;;741.80;58.50;;;4.50;99.90;;;;;;5082336;28;20028;-72
2022/01/13 07:40:58;;;;;;;744.17;64.25;;;4.50;99.90;;;;;;5087067;28;20040;-72
2022/01/13 07:43:25;;;;;;;705.15;60.88;;;4.50;99.90;;;;;;5103938;28;20052;-70
2022/01/13 07:45:52;;;;;;;713.40;64.07;;;4.50;99.90;;;;;;5082833;28;20035;-70
2022/01/13 07:48:17;;;;;;;675.65;63.70;;;4.50;99.90;;;;;;5085927;28;20050;-69
2022/01/13 07:50:43;;;;;;;746.88;63.85;;;4.50;99.90;;;;;;5083837;28;20471;-73
2022/01/13 07:53:09;;;;;;;687.55;55.75;;;4.50;99.90;;;;;;5092313;28;20040;-74
2022/01/13 07:55:35;;;;;;;652.90;55.90;;;4.50;99.90;;;;;;5085218;28;20048;-71
2022/01/13 07:58:00;;;;;;;697.17;64.15;;;4.50;99.90;;;;;;5086450;28;20119;-73
2022/01/13 08:00:26;;;;;;;580.65;56.90;;;4.50;99.90;;;;;;5089328;28;20032;-73
2022/01/13 08:02:52;;;;;;;624.65;58.72;;;4.50;99.90;;;;;;5096654;28;20082;-73
2022/01/13 08:05:17;;;;;;;618.50;60.17;;;4.60;99.90;;;;;;5089539;28;20036;-72
2022/01/13 08:07:43;;;;;;;624.22;58.60;;;4.60;99.90;;;;;;5074367;28;20093;-71
2022/01/13 08:10:09;;;;;;;620.42;58.17;;;4.50;99.90;;;;;;5064124;28;20123;-70
2022/01/13 08:12:35;;;;;;;595.60;57.53;;;4.50;99.90;;;;;;5081531;28;20051;-73
2022/01/13 08:15:01;;;;;;;614.15;59.10;;;4.60;99.90;;;;;;5085265;28;20048;-71
2022/01/13 08:20:11;;;;;;;528.53;52.40;;;4.60;99.90;;;;;;5084908;28;20043;-72
2022/01/13 08:22:36;;;;;;;547.22;54.65;;;4.60;99.90;;;;;;5090782;28;20040;-71
2022/01/13 08:25:02;;;;;;;619.83;57.50;;;4.60;99.90;;;;;;5072236;28;20048;-71
2022/01/13 08:27:28;;;;;;;567.17;56.50;;;4.60;99.90;;;;;;5089404;28;20044;-72
2022/01/13 08:29:53;;;;;;;607.50;56.40;;;4.70;99.90;;;;;;5072627;28;20485;-70
2022/01/13 08:32:19;;;;;;;577.97;56.28;;;4.60;99.90;;;;;;5089736;28;20045;-70
2022/01/13 08:34:45;;;;;;;528.42;55.55;;;4.70;99.90;;;;;;5073092;28;20045;-73
2022/01/13 08:37:11;;;;;;;500.13;56.17;;;4.60;99.90;;;;;;5073551;28;20441;-72
2022/01/13 08:39:43;;;;;;;543.95;53.92;;;4.70;99.90;;;;;;5089728;28;20024;-72
2022/01/13 08:42:09;;;;;;;572.35;54.67;;;4.80;99.90;;;;;;5092390;28;20037;-70
2022/01/13 08:44:35;;;;;;;460.30;50.15;;;4.70;99.90;;;;;;5092402;28;20047;-72
2022/01/13 08:47:00;;;;;;;547.05;56.53;;;4.80;99.90;;;;;;5095561;28;20038;-74
2022/01/13 08:49:26;;;;;;;493.25;57.03;;;4.80;99.90;;;;;;5106405;28;20043;-69
2022/01/13 08:51:51;;;;;;;536.88;56.72;;;4.80;99.90;;;;;;5098875;28;20117;-74
2022/01/13 08:54:21;;;;;;;538.00;54.33;;;4.80;99.90;;;;;;5079608;28;20453;-71
2022/01/13 08:56:47;;;;;;;534.85;53.38;;;4.90;99.90;;;;;;5074489;28;20051;-72
2022/01/13 08:59:12;;;;;;;472.33;50.42;;;4.90;99.90;;;;;;5071281;28;20040;-71
2022/01/13 09:01:38;;;;;;;521.60;53.72;;;4.90;99.90;;;;;;5088672;28;20380;-74
2022/01/13 09:04:04;;;;;;;479.42;49.20;;;4.90;99.90;;;;;;5094883;28;20032;-72
2022/01/13 09:06:30;;;;;;;494.02;50.05;;;4.90;99.90;;;;;;5100878;28;20139;-69
2022/01/13 09:08:55;;;;;;;524.17;53.13;;;4.90;99.90;;;;;;5089038;28;20071;-71
2022/01/13 09:11:21;;;;;;;592.78;56.08;;;5.00;99.90;;;;;;5079347;28;20039;-70
2022/01/13 09:13:47;;;;;;;541.28;54.38;;;5.00;99.90;;;;;;5095452;28;20036;-71
2022/01/13 09:16:15;;;;;;;544.05;53.38;;;5.00;99.90;;;;;;5089326;28;20109;-72
2022/01/13 09:19:07;;;;;;;520.00;54.10;;;5.00;99.90;;;;;;5060856;28;20040;-73
2022/01/13 09:21:33;;;;;;;545.38;54.92;;;5.10;99.90;;;;;;5089970;28;20044;-72
2022/01/13 09:23:59;;;;;;;537.78;50.00;;;5.00;99.90;;;;;;5074904;28;20100;-71
2022/01/13 09:26:25;;;;;;;563.22;54.75;;;5.10;99.90;;;;;;5091994;28;20044;-73
2022/01/13 09:28:52;;;;;;;502.17;55.20;;;5.10;99.90;;;;;;5076269;28;20039;-72
2022/01/13 09:31:18;;;;;;;487.58;52.03;;;5.10;99.90;;;;;;5090639;28;20035;-71
2022/01/13 09:33:43;;;;;;;518.22;53.33;;;5.20;99.90;;;;;;5091324;28;20036;-71
2022/01/13 09:36:09;;;;;;;569.00;56.47;;;5.20;99.90;;;;;;5074615;28;20044;-74
2022/01/13 09:38:36;;;;;;;510.50;51.67;;;5.20;99.90;;;;;;5090541;28;20130;-72
2022/01/13 09:41:02;;;;;;;515.33;55.58;;;5.20;99.90;;;;;;5089519;28;20036;-74
2022/01/13 09:43:29;;;;;;;500.90;53.33;;;5.30;99.90;;;;;;5073766;28;20395;-73
2022/01/13 09:45:57;;;;;;;543.65;55.47;;;5.20;99.90;;;;;;5091047;28;20047;-72
2022/01/13 09:48:23;;;;;;;542.28;56.50;;;5.20;99.90;;;;;;5077867;28;20048;-71
2022/01/13 09:50:49;;;;;;;571.45;58.30;;;5.20;99.90;;;;;;5098297;28;20047;-71
2022/01/13 09:53:16;;;;;;;544.05;53.05;;;5.30;99.90;;;;;;5091061;28;20044;-74
2022/01/13 09:55:43;;;;;;;536.90;58.20;;;5.30;99.90;;;;;;5091120;28;20051;-74
2022/01/13 09:58:12;;;;;;;552.42;58.28;;;5.30;99.90;;;;;;5089295;28;20036;-75
2022/01/13 10:00:40;;;;;;;499.95;52.88;;;5.40;99.90;;;;;;5090486;28;20127;-73
2022/01/13 10:03:26;;;;;;;573.85;56.53;;;5.40;99.90;;;;;;5084735;28;20059;-69
2022/01/13 10:05:57;;;;;;;553.03;56.97;;;5.40;99.90;;;;;;5087481;28;20048;-73
2022/01/13 10:08:39;;;;;;;568.83;53.95;;;5.40;99.90;;;;;;5088138;28;20075;-71
2022/01/13 10:11:33;;;;;;;587.50;54.77;;;5.40;99.90;;;;;;5088847;28;20132;-74
2022/01/13 10:16:45;;;;;;;541.30;52.35;;;5.50;99.90;;;;;;5082063;28;20402;-70
2022/01/13 10:19:35;;;;;;;594.88;57.45;;;5.50;99.90;;;;;;5079695;28;20243;-71
2022/01/13 10:22:11;;;;;;;541.78;55.40;;;5.50;99.90;;;;;;5080685;28;20579;-71
2022/01/13 10:24:45;;;;;;;609.53;59.03;;;5.50;99.90;;;;;;5105230;28;20078;-72
2022/01/13 10:27:12;;;;;;;547.42;54.60;;;5.50;99.90;;;;;;5088288;28;20050;-72
2022/01/13 10:29:56;;;;;;;604.95;58.85;;;5.50;99.90;;;;;;5105939;28;20383;-70
2022/01/13 10:32:31;;;;;;;522.40;55.03;;;5.50;99.90;;;;;;5085146;28;20066;-72
2022/01/13 10:35:03;;;;;;;554.72;58.35;;;5.60;99.90;;;;;;5103524;28;20036;-74
2022/01/13 10:37:33;;;;;;;542.75;54.65;;;5.60;99.90;;;;;;5079100;28;20411;-69
2022/01/13 10:40:03;;;;;;;525.08;57.20;;;5.60;99.90;;;;;;5094009;28;20053;-72
2022/01/13 10:45:19;;;;;;;553.92;58.38;;;5.70;99.90;;;;;;5072784;28;20049;-69
2022/01/13 10:47:53;;;;;;;496.98;56.55;;;5.60;99.90;;;;;;5089962;28;20563;-73
2022/01/13 10:50:19;;;;;;;546.78;62.13;;;5.70;99.90;;;;;;5066792;28;20040;-72
2022/01/13 10:52:44;;;;;;;505.35;58.78;;;5.70;99.90;;;;;;5085172;28;20534;-73
2022/01/13 10:55:22;;;;;;;518.58;56.15;;;5.70;99.90;;;;;;5104185;28;20055;-72
2022/01/13 10:57:49;;;;;;;544.60;61.85;;;5.70;99.90;;;;;;5087123;28;20040;-74
2022/01/13 11:00:22;;;;;;;436.98;54.13;;;5.60;99.90;;;;;;5060472;28;20044;-73
2022/01/13 11:03:09;;;;;;;517.47;58.03;;;5.60;99.90;;;;;;5081910;28;20039;-71
2022/01/13 11:05:39;;;;;;;530.05;61.92;;;5.70;99.90;;;;;;5069604;28;20052;-72
2022/01/13 11:08:06;;;;;;;500.08;52.65;;;5.60;99.90;;;;;;5070218;28;20040;-73
2022/01/13 11:10:33;;;;;;;491.52;53.13;;;5.60;99.90;;;;;;5086845;28;20131;-74
2022/01/13 11:13:00;;;;;;;482.20;51.90;;;5.60;99.90;;;;;;5053541;28;20040;-74
2022/01/13 11:15:26;;;;;;;532.55;56.63;;;5.60;99.90;;;;;;5085729;28;20077;-74
2022/01/13 11:17:54;;;;;;;527.28;59.50;;;5.60;99.90;;;;;;5073875;28;20036;-73
2022/01/13 11:20:20;;;;;;;534.03;57.85;;;5.60;99.90;;;;;;5090115;28;20043;-73
2022/01/13 11:22:48;;;;;;;474.70;51.50;;;5.60;99.90;;;;;;5090031;28;20077;-72
2022/01/13 11:25:19;;;;;;;497.45;54.55;;;5.60;99.90;;;;;;5061479;28;20036;-74
2022/01/13 11:27:45;;;;;;;512.67;51.85;;;5.60;99.90;;;;;;5069286;28;20052;-73
2022/01/13 11:30:17;;;;;;;555.72;57.55;;;5.60;99.90;;;;;;5068640;28;20082;-73
2022/01/13 11:32:44;;;;;;;535.90;57.83;;;5.60;99.90;;;;;;5070776;28;20048;-71
2022/01/13 11:35:12;;;;;;;489.92;58.95;;;5.70;99.90;;;;;;5056939;28;20037;-72
2022/01/13 11:37:39;;;;;;;547.03;56.50;;;5.60;99.90;;;;;;5073584;28;20067;-72
2022/01/13 11:40:27;;;;;;;529.08;58.60;;;5.60;99.90;;;;;;5090272;28;20422;-70
2022/01/13 11:42:55;;;;;;;539.97;59.63;;;5.70;99.90;;;;;;5090004;28;20051;-74
2022/01/13 11:45:22;;;;;;;533.50;59.15;;;5.60;99.90;;;;;;5073276;28;20048;-71
2022/01/13 11:47:48;;;;;;;542.88;56.65;;;5.70;99.90;;;;;;5080265;28;20039;-73
2022/01/13 11:50:22;;;;;;;538.70;65.22;;;5.70;99.90;;;;;;5092937;28;20043;-74
2022/01/13 11:52:52;;;;;;;574.38;59.75;;;5.80;99.90;;;;;;5089817;28;20080;-72
2022/01/13 11:55:23;;;;;;;565.35;58.55;;;5.80;99.90;;;;;;5073314;28;20040;-72
2022/01/13 11:57:49;;;;;;;524.70;59.67;;;5.80;99.90;;;;;;5092399;28;20106;-73
2022/01/13 12:00:24;;;;;;;502.88;56.78;;;5.70;99.90;;;;;;5091514;28;20048;-74
2022/01/13 12:02:51;;;;;;;533.03;59.20;;;5.70;99.90;;;;;;5094832;28;20071;-73
2022/01/13 12:05:26;;;;;;;565.05;61.85;;;5.70;99.90;;;;;;5074016;28;20039;-69
2022/01/13 12:07:54;;;;;;;532.13;62.83;;;5.70;99.90;;;;;;5090987;28;20066;-74
2022/01/13 12:10:35;;;;;;;481.15;55.35;;;5.60;99.90;;;;;;5107740;28;20040;-71
2022/01/13 12:13:20;;;;;;;476.90;53.28;;;5.60;99.90;;;;;;5098253;28;20487;-71
2022/01/13 12:15:46;;;;;;;530.55;58.47;;;5.60;99.90;;;;;;5082947;28;20109;-72
2022/01/13 12:18:12;;;;;;;564.90;58.45;;;5.70;99.90;;;;;;5095498;28;20245;-72
2022/01/13 12:23:15;;;;;;;488.05;55.95;;;5.70;99.90;;;;;;5078120;28;20039;-73
2022/01/13 12:25:42;;;;;;;486.10;53.40;;;5.70;99.90;;;;;;5094834;28;20098;-71
2022/01/13 12:28:13;;;;;;;492.70;53.95;;;5.70;99.90;;;;;;5090385;28;20035;-70
2022/01/13 12:30:39;;;;;;;511.00;55.05;;;5.80;99.90;;;;;;5069531;28;20220;-70
2022/01/13 12:33:07;;;;;;;460.10;55.67;;;5.80;99.90;;;;;;5085482;28;20040;-73
2022/01/13 12:35:41;;;;;;;503.52;59.03;;;5.70;99.90;;;;;;5087470;28;20422;-72
2022/01/13 12:38:14;;;;;;;462.40;53.40;;;5.80;99.90;;;;;;5090494;28;20482;-71
2022/01/13 12:40:44;;;;;;;463.92;51.55;;;5.80;99.90;;;;;;5087405;28;20047;-74
2022/01/13 12:46:09;;;;;;;448.67;51.92;;;5.80;99.90;;;;;;5085903;28;20051;-73
2022/01/13 12:48:36;;;;;;;468.63;54.67;;;5.90;99.90;;;;;;5085523;28;20486;-69
2022/01/13 12:51:02;;;;;;;499.15;58.92;;;5.90;99.90;;;;;;5075304;28;20066;-74
2022/01/13 12:53:33;;;;;;;451.05;57.45;;;5.80;99.90;;;;;;5070824;28;20044;-75
2022/01/13 12:56:08;;;;;;;457.53;54.53;;;5.80;99.90;;;;;;5080205;28;20392;-71